Time,TemperatureF,DewpointF,PressureIn,WindDirection,WindDirectionDegrees,WindSpeedMPH,WindSpeedGustMPH,Humidity,HourlyPrecipIn,Conditions,Clouds,dailyrainin,SoftwareType,DateUTC
2013-06-21 00:03:00,66.2,62.2,30.02,NNE,22,0.0,-999.0,87,-99.99,,,0.00,Acu-Link.com,2013-06-21 04:03:00,
2013-06-21 00:18:00,66.2,62.2,30.02,NNE,22,0.0,-999.0,87,-99.99,,,0.00,Acu-Link.com,2013-06-21 04:18:00,
2013-06-21 00:34:00,66.2,62.2,30.02,NNE,22,0.0,-999.0,87,-99.99,,,0.00,Acu-Link.com,2013-06-21 04:34:00,
2013-06-21 00:49:00,64.4,60.4,30.02,NNE,22,0.0,-999.0,87,-99.99,,,0.00,Acu-Link.com,2013-06-21 04:49:00,
2013-06-21 01:04:00,64.4,60.8,30.02,NNE,22,0.0,-999.0,88,-99.99,,,0.00,Acu-Link.com,2013-06-21 05:04:00,
2013-06-21 01:20:00,64.4,61.1,30.01,NNE,22,0.0,-999.0,89,-99.99,,,0.00,Acu-Link.com,2013-06-21 05:20:00,
2013-06-21 01:35:00,64.4,61.1,30.01,NNE,22,0.0,-999.0,89,-99.99,,,0.00,Acu-Link.com,2013-06-21 05:35:00,
2013-06-21 01:50:00,64.4,61.1,30.01,NNE,22,0.0,-999.0,89,-99.99,,,0.00,Acu-Link.com,2013-06-21 05:50:00,
2013-06-21 02:05:00,64.4,61.1,30.01,NNE,22,1.6,-999.0,89,-99.99,,,0.00,Acu-Link.com,2013-06-21 06:05:00,
2013-06-21 02:21:00,64.4,61.1,30.01,NNE,22,0.0,-999.0,89,-99.99,,,0.00,Acu-Link.com,2013-06-21 06:21:00,
2013-06-21 02:36:00,64.4,61.1,30.01,NNE,22,0.0,-999.0,89,-99.99,,,0.00,Acu-Link.com,2013-06-21 06:36:00,
2013-06-21 02:51:00,64.4,61.1,30.00,NNE,22,0.0,-999.0,89,-99.99,,,0.00,Acu-Link.com,2013-06-21 06:51:00,
2013-06-21 03:07:00,64.4,61.1,30.00,NNE,22,0.0,-999.0,89,-99.99,,,0.00,Acu-Link.com,2013-06-21 07:07:00,
2013-06-21 03:22:00,64.4,61.1,30.00,NNW,337,1.1,-999.0,89,-99.99,,,0.00,Acu-Link.com,2013-06-21 07:22:00,
2013-06-21 03:37:00,64.4,61.1,30.00,NNE,22,1.6,-999.0,89,-99.99,,,0.00,Acu-Link.com,2013-06-21 07:37:00,
2013-06-21 03:52:00,64.4,60.8,30.00,North,0,1.1,-999.0,88,-99.99,,,0.00,Acu-Link.com,2013-06-21 07:52:00,
2013-06-21 04:08:00,64.4,60.8,30.00,NE,45,0.0,-999.0,88,-99.99,,,0.00,Acu-Link.com,2013-06-21 08:08:00,
2013-06-21 04:23:00,64.4,60.8,30.00,NNE,22,0.0,-999.0,88,-99.99,,,0.00,Acu-Link.com,2013-06-21 08:23:00,
2013-06-21 04:38:00,62.6,59.0,30.00,West,270,3.6,-999.0,88,-99.99,,,0.00,Acu-Link.com,2013-06-21 08:38:00,
2013-06-21 04:53:00,62.6,58.7,30.00,NW,315,1.6,-999.0,87,-99.99,,,0.00,Acu-Link.com,2013-06-21 08:53:00,
2013-06-21 05:08:00,62.6,59.0,30.01,North,0,0.0,-999.0,88,-99.99,,,0.00,Acu-Link.com,2013-06-21 09:08:00,
2013-06-21 05:24:00,62.6,59.0,30.02,North,0,0.0,-999.0,88,-99.99,,,0.00,Acu-Link.com,2013-06-21 09:24:00,
2013-06-21 05:39:00,60.8,57.5,30.02,North,0,0.0,-999.0,89,-99.99,,,0.00,Acu-Link.com,2013-06-21 09:39:00,
2013-06-21 05:54:00,60.8,57.8,30.02,North,0,0.0,-999.0,90,-99.99,,,0.00,Acu-Link.com,2013-06-21 09:54:00,
2013-06-21 06:09:00,60.8,57.8,30.02,North,0,0.0,-999.0,90,-99.99,,,0.00,Acu-Link.com,2013-06-21 10:09:00,
2013-06-21 06:25:00,62.6,59.9,30.03,NNW,337,0.0,-999.0,91,-99.99,,,0.00,Acu-Link.com,2013-06-21 10:25:00,
2013-06-21 06:40:00,62.6,59.9,30.03,North,0,0.0,-999.0,91,-99.99,,,0.00,Acu-Link.com,2013-06-21 10:40:00,
2013-06-21 06:55:00,62.6,59.9,30.04,West,270,0.0,-999.0,91,-99.99,,,0.00,Acu-Link.com,2013-06-21 10:55:00,
2013-06-21 07:10:00,64.4,61.1,30.04,ESE,112,0.0,-999.0,89,-99.99,,,0.00,Acu-Link.com,2013-06-21 11:10:00,
2013-06-21 07:26:00,66.2,61.9,30.04,West,270,0.0,-999.0,86,-99.99,,,0.00,Acu-Link.com,2013-06-21 11:26:00,
2013-06-21 07:41:00,68.0,61.9,30.04,SSE,157,3.6,-999.0,81,-99.99,,,0.00,Acu-Link.com,2013-06-21 11:41:00,
2013-06-21 07:56:00,69.8,62.3,30.05,NNW,337,1.6,-999.0,77,-99.99,,,0.00,Acu-Link.com,2013-06-21 11:56:00,
2013-06-21 08:12:00,69.8,61.9,30.05,NNE,22,1.1,-999.0,76,-99.99,,,0.00,Acu-Link.com,2013-06-21 12:12:00,
2013-06-21 08:27:00,73.4,60.9,30.05,ESE,112,2.7,-999.0,65,-99.99,,,0.00,Acu-Link.com,2013-06-21 12:27:00,
2013-06-21 08:42:00,78.8,61.8,30.06,ENE,67,2.0,-999.0,56,-99.99,,,0.00,Acu-Link.com,2013-06-21 12:42:00,
2013-06-21 08:58:00,82.4,63.5,30.06,ESE,112,2.7,-999.0,53,-99.99,,,0.00,Acu-Link.com,2013-06-21 12:58:00,
2013-06-21 09:13:00,82.4,63.0,30.06,South,180,3.1,-999.0,52,-99.99,,,0.00,Acu-Link.com,2013-06-21 13:13:00,
2013-06-21 09:28:00,84.2,64.6,30.06,NE,45,0.0,-999.0,52,-99.99,,,0.00,Acu-Link.com,2013-06-21 13:28:00,
2013-06-21 09:43:00,86.0,64.0,30.06,ESE,112,3.6,-999.0,48,-99.99,,,0.00,Acu-Link.com,2013-06-21 13:43:00,
2013-06-21 09:58:00,86.0,62.8,30.06,SE,135,2.7,-999.0,46,-99.99,,,0.00,Acu-Link.com,2013-06-21 13:58:00,
2013-06-21 10:14:00,87.8,64.4,30.05,South,180,2.0,-999.0,46,-99.99,,,0.00,Acu-Link.com,2013-06-21 14:14:00,
2013-06-21 23:26:00,64.4,58.4,30.01,NNE,22,0.0,-999.0,81,-99.99,,,0.00,Acu-Link.com,2013-06-22 03:26:00,
2013-06-21 23:41:00,62.6,57.0,30.01,NNE,22,0.0,-999.0,82,-99.99,,,0.00,Acu-Link.com,2013-06-22 03:41:00,
2013-06-21 23:56:00,62.6,57.0,30.01,NNE,22,0.0,-999.0,82,-99.99,,,0.00,Acu-Link.com,2013-06-22 03:56:00,